Zion, Iowa
Current Conditions -  °F | °C
As of 10:55 PM on Thursday 30 Oct 2014 (Local Time) from KCSQ Reporting Station
Overcast Overcast  
Wind Chill: 39°   Ceiling: 2600
Heat Index: 46°   Visibility: 10mi
Dew Point: 39°   Wind: 17mph
Humidity: 76%   Direction: 360°N
Pressure: 30.24"   Gusts: 30mph
Location:  41.2318°N, 94.3386°W
Report Text: KCSQ 310355Z AUTO 36015G26KT 10SM BKN026 BKN050 OVC070 08/04 A3024 RMK AO2
Loading
Personal Weather Stations






























Interactive Weather Map
Tropical Storm Tracking
New forecast layout! Learn more

10-Day Weather Forecast

Advertisements
Track Severe Weather on mobile